sensor_id;sensor_type;location;lat;lon;timestamp;P1;durP1;ratioP1;P2;durP2;ratioP2
3627;SDS011;1830;49.000;12.074;2022-08-19T00:00:38;33.67;;;29.50;;
3627;SDS011;1830;49.000;12.074;2022-08-19T00:03:05;38.00;;;31.33;;
3627;SDS011;1830;49.000;12.074;2022-08-19T00:05:33;34.80;;;30.97;;
3627;SDS011;1830;49.000;12.074;2022-08-19T00:08:00;33.63;;;30.00;;
3627;SDS011;1830;49.000;12.074;2022-08-19T00:10:27;35.47;;;30.40;;
3627;SDS011;1830;49.000;12.074;2022-08-19T00:12:54;35.43;;;31.60;;
3627;SDS011;1830;49.000;12.074;2022-08-19T00:15:22;44.33;;;31.73;;
3627;SDS011;1830;49.000;12.074;2022-08-19T00:17:49;40.33;;;34.13;;
3627;SDS011;1830;49.000;12.074;2022-08-19T00:20:18;36.57;;;32.73;;
3627;SDS011;1830;49.000;12.074;2022-08-19T00:22:47;33.40;;;29.43;;
3627;SDS011;1830;49.000;12.074;2022-08-19T00:25:14;37.73;;;29.60;;
3627;SDS011;1830;49.000;12.074;2022-08-19T00:27:42;34.97;;;31.23;;
3627;SDS011;1830;49.000;12.074;2022-08-19T00:30:09;32.63;;;29.23;;
3627;SDS011;1830;49.000;12.074;2022-08-19T00:35:07;33.13;;;29.23;;
3627;SDS011;1830;49.000;12.074;2022-08-19T00:37:34;37.10;;;29.37;;
3627;SDS011;1830;49.000;12.074;2022-08-19T00:40:04;30.80;;;27.43;;
3627;SDS011;1830;49.000;12.074;2022-08-19T00:42:32;33.50;;;30.03;;
3627;SDS011;1830;49.000;12.074;2022-08-19T00:44:59;37.93;;;30.93;;
3627;SDS011;1830;49.000;12.074;2022-08-19T00:47:26;31.50;;;28.10;;
3627;SDS011;1830;49.000;12.074;2022-08-19T00:49:54;36.30;;;31.20;;
3627;SDS011;1830;49.000;12.074;2022-08-19T00:52:27;36.13;;;28.83;;
3627;SDS011;1830;49.000;12.074;2022-08-19T00:54:58;36.33;;;29.13;;
3627;SDS011;1830;49.000;12.074;2022-08-19T00:57:28;36.43;;;30.50;;
3627;SDS011;1830;49.000;12.074;2022-08-19T00:59:56;35.60;;;30.73;;
3627;SDS011;1830;49.000;12.074;2022-08-19T01:02:25;32.57;;;27.40;;
3627;SDS011;1830;49.000;12.074;2022-08-19T01:04:53;32.03;;;28.83;;
3627;SDS011;1830;49.000;12.074;2022-08-19T01:07:20;33.53;;;30.07;;
3627;SDS011;1830;49.000;12.074;2022-08-19T01:09:48;33.70;;;28.90;;
3627;SDS011;1830;49.000;12.074;2022-08-19T01:12:16;43.17;;;30.77;;
3627;SDS011;1830;49.000;12.074;2022-08-19T01:14:43;37.47;;;30.20;;
3627;SDS011;1830;49.000;12.074;2022-08-19T01:17:11;38.83;;;32.37;;
3627;SDS011;1830;49.000;12.074;2022-08-19T01:19:38;33.63;;;28.23;;
3627;SDS011;1830;49.000;12.074;2022-08-19T01:22:08;30.27;;;26.97;;
3627;SDS011;1830;49.000;12.074;2022-08-19T01:24:41;34.53;;;30.83;;
3627;SDS011;1830;49.000;12.074;2022-08-19T01:27:08;35.87;;;31.40;;
3627;SDS011;1830;49.000;12.074;2022-08-19T01:29:36;37.67;;;33.60;;
3627;SDS011;1830;49.000;12.074;2022-08-19T01:32:07;37.90;;;32.60;;
3627;SDS011;1830;49.000;12.074;2022-08-19T01:34:34;39.63;;;34.83;;
3627;SDS011;1830;49.000;12.074;2022-08-19T01:37:05;36.90;;;32.90;;
3627;SDS011;1830;49.000;12.074;2022-08-19T01:39:33;39.17;;;35.17;;
3627;SDS011;1830;49.000;12.074;2022-08-19T01:42:01;39.23;;;33.60;;
3627;SDS011;1830;49.000;12.074;2022-08-19T01:44:29;36.77;;;30.47;;
3627;SDS011;1830;49.000;12.074;2022-08-19T01:46:56;40.93;;;32.60;;
3627;SDS011;1830;49.000;12.074;2022-08-19T01:49:24;35.03;;;31.43;;
3627;SDS011;1830;49.000;12.074;2022-08-19T01:51:52;36.33;;;32.43;;
3627;SDS011;1830;49.000;12.074;2022-08-19T01:54:20;38.43;;;32.50;;
3627;SDS011;1830;49.000;12.074;2022-08-19T01:56:48;39.30;;;32.57;;
3627;SDS011;1830;49.000;12.074;2022-08-19T01:59:18;37.73;;;31.63;;
3627;SDS011;1830;49.000;12.074;2022-08-19T02:01:47;38.57;;;32.00;;
3627;SDS011;1830;49.000;12.074;2022-08-19T02:04:14;33.70;;;30.10;;
3627;SDS011;1830;49.000;12.074;2022-08-19T02:06:41;36.60;;;31.17;;
3627;SDS011;1830;49.000;12.074;2022-08-19T02:09:08;36.40;;;31.87;;
3627;SDS011;1830;49.000;12.074;2022-08-19T02:11:36;38.87;;;31.90;;
3627;SDS011;1830;49.000;12.074;2022-08-19T02:14:05;33.00;;;29.57;;
3627;SDS011;1830;49.000;12.074;2022-08-19T02:16:35;36.67;;;31.53;;
3627;SDS011;1830;49.000;12.074;2022-08-19T02:19:03;37.40;;;32.50;;
3627;SDS011;1830;49.000;12.074;2022-08-19T02:21:30;45.57;;;36.03;;
3627;SDS011;1830;49.000;12.074;2022-08-19T02:23:57;39.53;;;35.20;;
3627;SDS011;1830;49.000;12.074;2022-08-19T02:26:24;39.13;;;33.07;;
3627;SDS011;1830;49.000;12.074;2022-08-19T02:28:52;41.93;;;33.30;;
3627;SDS011;1830;49.000;12.074;2022-08-19T02:31:21;38.37;;;33.67;;
3627;SDS011;1830;49.000;12.074;2022-08-19T02:33:50;44.70;;;32.40;;
3627;SDS011;1830;49.000;12.074;2022-08-19T02:36:17;44.17;;;32.00;;
3627;SDS011;1830;49.000;12.074;2022-08-19T02:38:44;37.80;;;30.43;;
3627;SDS011;1830;49.000;12.074;2022-08-19T02:41:11;37.70;;;31.13;;
3627;SDS011;1830;49.000;12.074;2022-08-19T02:43:41;38.67;;;30.70;;
3627;SDS011;1830;49.000;12.074;2022-08-19T02:46:12;36.10;;;31.27;;
3627;SDS011;1830;49.000;12.074;2022-08-19T02:48:40;40.23;;;31.93;;
3627;SDS011;1830;49.000;12.074;2022-08-19T02:51:14;34.07;;;30.37;;
3627;SDS011;1830;49.000;12.074;2022-08-19T02:53:42;35.63;;;31.87;;
3627;SDS011;1830;49.000;12.074;2022-08-19T02:56:09;37.10;;;31.60;;
3627;SDS011;1830;49.000;12.074;2022-08-19T02:58:36;34.50;;;31.00;;
3627;SDS011;1830;49.000;12.074;2022-08-19T03:01:03;33.63;;;28.87;;
3627;SDS011;1830;49.000;12.074;2022-08-19T03:03:30;33.70;;;28.67;;
3627;SDS011;1830;49.000;12.074;2022-08-19T03:06:04;31.40;;;28.00;;
3627;SDS011;1830;49.000;12.074;2022-08-19T03:08:34;33.90;;;30.27;;
3627;SDS011;1830;49.000;12.074;2022-08-19T03:11:01;35.83;;;31.47;;
3627;SDS011;1830;49.000;12.074;2022-08-19T03:13:28;34.40;;;30.70;;
3627;SDS011;1830;49.000;12.074;2022-08-19T03:15:55;38.73;;;30.90;;
3627;SDS011;1830;49.000;12.074;2022-08-19T03:18:22;36.07;;;29.40;;
3627;SDS011;1830;49.000;12.074;2022-08-19T03:20:51;31.53;;;27.03;;
3627;SDS011;1830;49.000;12.074;2022-08-19T03:23:19;32.87;;;29.23;;
3627;SDS011;1830;49.000;12.074;2022-08-19T03:25:49;38.10;;;30.20;;
3627;SDS011;1830;49.000;12.074;2022-08-19T03:28:17;36.13;;;29.63;;
3627;SDS011;1830;49.000;12.074;2022-08-19T03:30:54;35.40;;;29.13;;
3627;SDS011;1830;49.000;12.074;2022-08-19T03:33:23;31.93;;;28.60;;
3627;SDS011;1830;49.000;12.074;2022-08-19T03:35:59;34.20;;;30.50;;
3627;SDS011;1830;49.000;12.074;2022-08-19T03:38:27;33.80;;;29.37;;
3627;SDS011;1830;49.000;12.074;2022-08-19T03:40:55;33.23;;;28.40;;
3627;SDS011;1830;49.000;12.074;2022-08-19T03:43:22;35.37;;;30.23;;
3627;SDS011;1830;49.000;12.074;2022-08-19T03:45:58;32.87;;;29.50;;
3627;SDS011;1830;49.000;12.074;2022-08-19T03:48:25;40.00;;;29.27;;
3627;SDS011;1830;49.000;12.074;2022-08-19T03:50:52;32.60;;;28.47;;
3627;SDS011;1830;49.000;12.074;2022-08-19T03:53:19;31.30;;;28.07;;
3627;SDS011;1830;49.000;12.074;2022-08-19T03:55:46;31.17;;;27.77;;
3627;SDS011;1830;49.000;12.074;2022-08-19T03:58:14;30.23;;;27.03;;
3627;SDS011;1830;49.000;12.074;2022-08-19T04:00:41;32.37;;;28.33;;
3627;SDS011;1830;49.000;12.074;2022-08-19T04:03:08;31.50;;;28.13;;
3627;SDS011;1830;49.000;12.074;2022-08-19T04:05:35;29.73;;;26.60;;
3627;SDS011;1830;49.000;12.074;2022-08-19T04:08:02;32.50;;;27.07;;
3627;SDS011;1830;49.000;12.074;2022-08-19T04:10:30;30.77;;;27.43;;
3627;SDS011;1830;49.000;12.074;2022-08-19T04:13:01;30.83;;;27.40;;
3627;SDS011;1830;49.000;12.074;2022-08-19T04:15:30;30.97;;;25.93;;
3627;SDS011;1830;49.000;12.074;2022-08-19T04:18:00;38.23;;;26.90;;
3627;SDS011;1830;49.000;12.074;2022-08-19T04:20:27;34.20;;;27.30;;
3627;SDS011;1830;49.000;12.074;2022-08-19T04:22:55;29.20;;;26.10;;
3627;SDS011;1830;49.000;12.074;2022-08-19T04:25:22;27.20;;;23.87;;
3627;SDS011;1830;49.000;12.074;2022-08-19T04:27:49;37.43;;;28.13;;
3627;SDS011;1830;49.000;12.074;2022-08-19T04:30:16;30.20;;;27.00;;
3627;SDS011;1830;49.000;12.074;2022-08-19T04:32:45;32.53;;;26.70;;
3627;SDS011;1830;49.000;12.074;2022-08-19T04:35:12;31.80;;;28.33;;
3627;SDS011;1830;49.000;12.074;2022-08-19T04:37:39;32.10;;;28.70;;
3627;SDS011;1830;49.000;12.074;2022-08-19T04:40:06;31.17;;;27.80;;
3627;SDS011;1830;49.000;12.074;2022-08-19T04:42:51;32.67;;;28.00;;
3627;SDS011;1830;49.000;12.074;2022-08-19T04:45:18;32.50;;;29.00;;
3627;SDS011;1830;49.000;12.074;2022-08-19T04:47:47;32.30;;;28.80;;
3627;SDS011;1830;49.000;12.074;2022-08-19T04:50:14;32.83;;;29.00;;
3627;SDS011;1830;49.000;12.074;2022-08-19T04:52:40;30.40;;;27.07;;
3627;SDS011;1830;49.000;12.074;2022-08-19T04:55:08;30.40;;;26.83;;
3627;SDS011;1830;49.000;12.074;2022-08-19T04:57:35;31.30;;;27.97;;
3627;SDS011;1830;49.000;12.074;2022-08-19T05:00:06;30.80;;;27.23;;
3627;SDS011;1830;49.000;12.074;2022-08-19T05:02:33;33.57;;;29.30;;
3627;SDS011;1830;49.000;12.074;2022-08-19T05:05:02;37.20;;;28.87;;
3627;SDS011;1830;49.000;12.074;2022-08-19T05:07:31;32.00;;;27.13;;
3627;SDS011;1830;49.000;12.074;2022-08-19T05:09:58;31.83;;;27.30;;
3627;SDS011;1830;49.000;12.074;2022-08-19T05:12:25;30.30;;;26.90;;
3627;SDS011;1830;49.000;12.074;2022-08-19T05:14:53;34.07;;;28.70;;
3627;SDS011;1830;49.000;12.074;2022-08-19T05:17:21;31.93;;;27.97;;
3627;SDS011;1830;49.000;12.074;2022-08-19T05:19:48;35.63;;;28.20;;
3627;SDS011;1830;49.000;12.074;2022-08-19T05:22:48;33.20;;;24.63;;
3627;SDS011;1830;49.000;12.074;2022-08-19T05:25:16;29.40;;;24.80;;
3627;SDS011;1830;49.000;12.074;2022-08-19T05:27:45;37.43;;;27.37;;
3627;SDS011;1830;49.000;12.074;2022-08-19T05:30:12;38.50;;;28.30;;
3627;SDS011;1830;49.000;12.074;2022-08-19T05:32:40;32.67;;;26.90;;
3627;SDS011;1830;49.000;12.074;2022-08-19T05:35:08;31.07;;;27.30;;
3627;SDS011;1830;49.000;12.074;2022-08-19T05:37:35;29.97;;;26.83;;
3627;SDS011;1830;49.000;12.074;2022-08-19T05:40:07;28.40;;;25.30;;
3627;SDS011;1830;49.000;12.074;2022-08-19T05:42:34;28.20;;;25.20;;
3627;SDS011;1830;49.000;12.074;2022-08-19T05:45:01;30.20;;;24.47;;
3627;SDS011;1830;49.000;12.074;2022-08-19T05:47:28;25.17;;;22.57;;
3627;SDS011;1830;49.000;12.074;2022-08-19T05:49:55;25.73;;;22.87;;
3627;SDS011;1830;49.000;12.074;2022-08-19T05:52:22;27.20;;;22.13;;
3627;SDS011;1830;49.000;12.074;2022-08-19T05:54:49;24.73;;;22.23;;
3627;SDS011;1830;49.000;12.074;2022-08-19T05:57:17;23.47;;;20.90;;
3627;SDS011;1830;49.000;12.074;2022-08-19T05:59:44;27.40;;;23.20;;
3627;SDS011;1830;49.000;12.074;2022-08-19T06:02:16;26.67;;;22.30;;
3627;SDS011;1830;49.000;12.074;2022-08-19T06:04:43;24.13;;;21.10;;
3627;SDS011;1830;49.000;12.074;2022-08-19T06:07:10;28.20;;;21.90;;
3627;SDS011;1830;49.000;12.074;2022-08-19T06:09:37;25.03;;;21.60;;
3627;SDS011;1830;49.000;12.074;2022-08-19T06:12:03;24.63;;;21.63;;
3627;SDS011;1830;49.000;12.074;2022-08-19T06:14:33;24.70;;;22.10;;
3627;SDS011;1830;49.000;12.074;2022-08-19T06:17:02;26.17;;;22.30;;
3627;SDS011;1830;49.000;12.074;2022-08-19T06:19:30;26.93;;;24.07;;
3627;SDS011;1830;49.000;12.074;2022-08-19T06:21:57;25.33;;;22.63;;
3627;SDS011;1830;49.000;12.074;2022-08-19T06:24:26;25.70;;;21.53;;
3627;SDS011;1830;49.000;12.074;2022-08-19T06:26:55;24.33;;;21.77;;
3627;SDS011;1830;49.000;12.074;2022-08-19T06:29:24;24.83;;;20.93;;
3627;SDS011;1830;49.000;12.074;2022-08-19T06:31:54;24.50;;;22.00;;
3627;SDS011;1830;49.000;12.074;2022-08-19T06:34:23;23.90;;;21.40;;
3627;SDS011;1830;49.000;12.074;2022-08-19T06:36:51;24.03;;;21.60;;
3627;SDS011;1830;49.000;12.074;2022-08-19T06:39:19;24.17;;;21.57;;
3627;SDS011;1830;49.000;12.074;2022-08-19T06:41:50;24.80;;;22.10;;
3627;SDS011;1830;49.000;12.074;2022-08-19T06:44:18;32.90;;;22.80;;
3627;SDS011;1830;49.000;12.074;2022-08-19T06:46:47;26.73;;;23.93;;
3627;SDS011;1830;49.000;12.074;2022-08-19T06:49:16;28.57;;;25.57;;
3627;SDS011;1830;49.000;12.074;2022-08-19T06:51:44;26.77;;;23.97;;
3627;SDS011;1830;49.000;12.074;2022-08-19T06:54:13;29.90;;;26.70;;
3627;SDS011;1830;49.000;12.074;2022-08-19T06:56:41;28.30;;;24.93;;
3627;SDS011;1830;49.000;12.074;2022-08-19T06:59:09;30.27;;;24.77;;
3627;SDS011;1830;49.000;12.074;2022-08-19T07:01:37;33.67;;;25.20;;
3627;SDS011;1830;49.000;12.074;2022-08-19T07:04:05;29.73;;;26.60;;
3627;SDS011;1830;49.000;12.074;2022-08-19T07:06:35;31.17;;;27.57;;
3627;SDS011;1830;49.000;12.074;2022-08-19T07:09:02;35.07;;;25.77;;
3627;SDS011;1830;49.000;12.074;2022-08-19T07:11:30;31.90;;;27.23;;
3627;SDS011;1830;49.000;12.074;2022-08-19T07:13:57;33.93;;;28.80;;
3627;SDS011;1830;49.000;12.074;2022-08-19T07:16:24;36.33;;;29.30;;
3627;SDS011;1830;49.000;12.074;2022-08-19T07:18:52;32.13;;;27.60;;
3627;SDS011;1830;49.000;12.074;2022-08-19T07:21:20;42.97;;;31.00;;
3627;SDS011;1830;49.000;12.074;2022-08-19T07:23:50;35.67;;;29.63;;
3627;SDS011;1830;49.000;12.074;2022-08-19T07:26:18;32.87;;;29.37;;
3627;SDS011;1830;49.000;12.074;2022-08-19T07:28:47;42.33;;;30.63;;
3627;SDS011;1830;49.000;12.074;2022-08-19T07:31:15;34.90;;;28.93;;
3627;SDS011;1830;49.000;12.074;2022-08-19T07:33:44;33.87;;;28.90;;
3627;SDS011;1830;49.000;12.074;2022-08-19T07:36:12;59.13;;;50.53;;
3627;SDS011;1830;49.000;12.074;2022-08-19T07:38:41;35.67;;;30.20;;
3627;SDS011;1830;49.000;12.074;2022-08-19T07:41:14;33.17;;;28.40;;
3627;SDS011;1830;49.000;12.074;2022-08-19T07:43:44;30.83;;;27.43;;
3627;SDS011;1830;49.000;12.074;2022-08-19T07:46:11;30.40;;;26.00;;
3627;SDS011;1830;49.000;12.074;2022-08-19T07:48:39;34.40;;;28.07;;
3627;SDS011;1830;49.000;12.074;2022-08-19T07:51:07;29.87;;;26.13;;
3627;SDS011;1830;49.000;12.074;2022-08-19T07:53:36;38.00;;;26.40;;
3627;SDS011;1830;49.000;12.074;2022-08-19T07:56:04;31.63;;;24.17;;
3627;SDS011;1830;49.000;12.074;2022-08-19T07:58:33;28.13;;;24.90;;
3627;SDS011;1830;49.000;12.074;2022-08-19T08:01:02;27.80;;;22.27;;
3627;SDS011;1830;49.000;12.074;2022-08-19T08:03:30;32.63;;;23.77;;
3627;SDS011;1830;49.000;12.074;2022-08-19T08:06:14;28.37;;;24.50;;
3627;SDS011;1830;49.000;12.074;2022-08-19T08:09:00;29.13;;;25.37;;
3627;SDS011;1830;49.000;12.074;2022-08-19T08:11:47;26.90;;;24.00;;
3627;SDS011;1830;49.000;12.074;2022-08-19T08:14:17;28.83;;;25.30;;
3627;SDS011;1830;49.000;12.074;2022-08-19T08:16:46;27.87;;;24.97;;
3627;SDS011;1830;49.000;12.074;2022-08-19T08:19:16;28.80;;;25.30;;
3627;SDS011;1830;49.000;12.074;2022-08-19T08:21:44;28.73;;;25.73;;
3627;SDS011;1830;49.000;12.074;2022-08-19T08:24:11;35.37;;;23.50;;
3627;SDS011;1830;49.000;12.074;2022-08-19T08:26:38;29.93;;;26.60;;
3627;SDS011;1830;49.000;12.074;2022-08-19T08:29:05;31.77;;;24.60;;
3627;SDS011;1830;49.000;12.074;2022-08-19T08:31:37;29.27;;;26.17;;
3627;SDS011;1830;49.000;12.074;2022-08-19T08:34:05;41.97;;;24.30;;
3627;SDS011;1830;49.000;12.074;2022-08-19T08:36:32;28.60;;;25.60;;
3627;SDS011;1830;49.000;12.074;2022-08-19T08:39:04;33.90;;;26.43;;
3627;SDS011;1830;49.000;12.074;2022-08-19T08:41:37;33.37;;;28.00;;
3627;SDS011;1830;49.000;12.074;2022-08-19T08:44:11;30.30;;;23.67;;
3627;SDS011;1830;49.000;12.074;2022-08-19T08:46:45;26.77;;;23.97;;
3627;SDS011;1830;49.000;12.074;2022-08-19T08:49:18;26.27;;;23.57;;
3627;SDS011;1830;49.000;12.074;2022-08-19T08:51:52;32.13;;;24.30;;
3627;SDS011;1830;49.000;12.074;2022-08-19T08:54:26;25.93;;;23.13;;
3627;SDS011;1830;49.000;12.074;2022-08-19T08:57:02;25.57;;;22.80;;
3627;SDS011;1830;49.000;12.074;2022-08-19T08:59:33;23.60;;;21.07;;
3627;SDS011;1830;49.000;12.074;2022-08-19T09:02:04;23.20;;;20.90;;
3627;SDS011;1830;49.000;12.074;2022-08-19T09:04:31;25.93;;;22.40;;
3627;SDS011;1830;49.000;12.074;2022-08-19T09:07:02;25.97;;;21.43;;
3627;SDS011;1830;49.000;12.074;2022-08-19T09:09:43;22.77;;;19.53;;
3627;SDS011;1830;49.000;12.074;2022-08-19T09:12:14;23.30;;;19.77;;
3627;SDS011;1830;49.000;12.074;2022-08-19T09:14:48;23.73;;;21.23;;
3627;SDS011;1830;49.000;12.074;2022-08-19T09:17:21;25.27;;;22.40;;
3627;SDS011;1830;49.000;12.074;2022-08-19T09:19:57;22.80;;;20.37;;
3627;SDS011;1830;49.000;12.074;2022-08-19T09:22:29;26.90;;;22.27;;
3627;SDS011;1830;49.000;12.074;2022-08-19T09:24:56;26.60;;;19.50;;
3627;SDS011;1830;49.000;12.074;2022-08-19T09:27:23;22.73;;;19.63;;
3627;SDS011;1830;49.000;12.074;2022-08-19T09:29:51;23.63;;;19.40;;
3627;SDS011;1830;49.000;12.074;2022-08-19T09:32:20;29.40;;;20.20;;
3627;SDS011;1830;49.000;12.074;2022-08-19T09:34:47;21.70;;;19.50;;
3627;SDS011;1830;49.000;12.074;2022-08-19T09:37:14;21.47;;;19.20;;
3627;SDS011;1830;49.000;12.074;2022-08-19T09:39:41;21.50;;;19.10;;
3627;SDS011;1830;49.000;12.074;2022-08-19T09:42:08;23.77;;;19.60;;
3627;SDS011;1830;49.000;12.074;2022-08-19T09:44:37;24.73;;;21.10;;
3627;SDS011;1830;49.000;12.074;2022-08-19T09:47:04;22.70;;;20.30;;
3627;SDS011;1830;49.000;12.074;2022-08-19T09:49:32;24.30;;;21.73;;
3627;SDS011;1830;49.000;12.074;2022-08-19T09:51:59;23.17;;;20.87;;
3627;SDS011;1830;49.000;12.074;2022-08-19T09:54:26;22.50;;;20.20;;
3627;SDS011;1830;49.000;12.074;2022-08-19T09:56:54;30.30;;;20.20;;
3627;SDS011;1830;49.000;12.074;2022-08-19T09:59:21;24.17;;;18.90;;
3627;SDS011;1830;49.000;12.074;2022-08-19T10:01:49;22.80;;;20.40;;
3627;SDS011;1830;49.000;12.074;2022-08-19T10:04:16;24.03;;;19.37;;
3627;SDS011;1830;49.000;12.074;2022-08-19T10:06:44;23.50;;;18.37;;
3627;SDS011;1830;49.000;12.074;2022-08-19T10:09:12;21.83;;;18.70;;
3627;SDS011;1830;49.000;12.074;2022-08-19T10:11:41;23.23;;;19.73;;
3627;SDS011;1830;49.000;12.074;2022-08-19T10:14:13;25.10;;;20.00;;
3627;SDS011;1830;49.000;12.074;2022-08-19T10:16:41;20.40;;;18.23;;
3627;SDS011;1830;49.000;12.074;2022-08-19T10:19:09;22.73;;;19.80;;
3627;SDS011;1830;49.000;12.074;2022-08-19T10:21:35;19.93;;;17.90;;
3627;SDS011;1830;49.000;12.074;2022-08-19T10:24:05;19.60;;;17.50;;
3627;SDS011;1830;49.000;12.074;2022-08-19T10:26:33;21.30;;;16.90;;
3627;SDS011;1830;49.000;12.074;2022-08-19T10:29:03;18.97;;;17.07;;
3627;SDS011;1830;49.000;12.074;2022-08-19T10:31:31;20.53;;;16.73;;
3627;SDS011;1830;49.000;12.074;2022-08-19T10:33:59;21.13;;;15.87;;
3627;SDS011;1830;49.000;12.074;2022-08-19T10:36:27;22.37;;;16.63;;
3627;SDS011;1830;49.000;12.074;2022-08-19T10:38:56;18.70;;;16.73;;
3627;SDS011;1830;49.000;12.074;2022-08-19T10:41:27;18.40;;;16.27;;
3627;SDS011;1830;49.000;12.074;2022-08-19T10:43:56;21.10;;;16.40;;
3627;SDS011;1830;49.000;12.074;2022-08-19T10:46:25;18.00;;;15.10;;
3627;SDS011;1830;49.000;12.074;2022-08-19T10:48:53;26.03;;;15.80;;
3627;SDS011;1830;49.000;12.074;2022-08-19T10:51:21;21.07;;;16.30;;
3627;SDS011;1830;49.000;12.074;2022-08-19T10:54:05;19.77;;;16.57;;
3627;SDS011;1830;49.000;12.074;2022-08-19T10:56:34;20.30;;;18.10;;
3627;SDS011;1830;49.000;12.074;2022-08-19T10:59:19;19.03;;;17.03;;
3627;SDS011;1830;49.000;12.074;2022-08-19T11:01:47;21.30;;;19.17;;
3627;SDS011;1830;49.000;12.074;2022-08-19T11:04:15;20.83;;;18.63;;
3627;SDS011;1830;49.000;12.074;2022-08-19T11:06:43;25.40;;;20.93;;
3627;SDS011;1830;49.000;12.074;2022-08-19T11:09:12;20.30;;;18.10;;
3627;SDS011;1830;49.000;12.074;2022-08-19T11:11:41;22.07;;;18.80;;
3627;SDS011;1830;49.000;12.074;2022-08-19T11:14:09;20.60;;;18.30;;
3627;SDS011;1830;49.000;12.074;2022-08-19T11:16:38;23.80;;;21.20;;
3627;SDS011;1830;49.000;12.074;2022-08-19T11:19:06;22.97;;;19.93;;
3627;SDS011;1830;49.000;12.074;2022-08-19T11:21:34;22.60;;;20.20;;
3627;SDS011;1830;49.000;12.074;2022-08-19T11:24:05;24.13;;;20.07;;
3627;SDS011;1830;49.000;12.074;2022-08-19T11:26:33;23.27;;;20.80;;
3627;SDS011;1830;49.000;12.074;2022-08-19T11:29:02;22.20;;;20.00;;
3627;SDS011;1830;49.000;12.074;2022-08-19T11:31:31;29.33;;;22.27;;
3627;SDS011;1830;49.000;12.074;2022-08-19T11:34:01;28.53;;;21.93;;
3627;SDS011;1830;49.000;12.074;2022-08-19T11:36:30;26.07;;;22.60;;
3627;SDS011;1830;49.000;12.074;2022-08-19T11:38:58;24.73;;;22.10;;
3627;SDS011;1830;49.000;12.074;2022-08-19T11:41:25;27.10;;;22.23;;
3627;SDS011;1830;49.000;12.074;2022-08-19T11:43:52;27.77;;;21.20;;
3627;SDS011;1830;49.000;12.074;2022-08-19T11:46:22;24.73;;;22.13;;
3627;SDS011;1830;49.000;12.074;2022-08-19T11:48:50;31.90;;;24.93;;
3627;SDS011;1830;49.000;12.074;2022-08-19T11:51:18;30.33;;;22.30;;
3627;SDS011;1830;49.000;12.074;2022-08-19T11:53:46;30.53;;;25.83;;
3627;SDS011;1830;49.000;12.074;2022-08-19T11:56:13;47.23;;;28.63;;
3627;SDS011;1830;49.000;12.074;2022-08-19T11:58:40;32.20;;;25.10;;
3627;SDS011;1830;49.000;12.074;2022-08-19T12:01:08;36.23;;;24.87;;
3627;SDS011;1830;49.000;12.074;2022-08-19T12:03:37;33.47;;;26.17;;
3627;SDS011;1830;49.000;12.074;2022-08-19T12:06:06;36.43;;;26.30;;
3627;SDS011;1830;49.000;12.074;2022-08-19T12:08:33;31.80;;;25.53;;
3627;SDS011;1830;49.000;12.074;2022-08-19T12:11:00;32.60;;;25.23;;
3627;SDS011;1830;49.000;12.074;2022-08-19T12:13:28;30.93;;;25.30;;
3627;SDS011;1830;49.000;12.074;2022-08-19T12:15:55;34.30;;;25.47;;
3627;SDS011;1830;49.000;12.074;2022-08-19T12:18:23;30.40;;;24.20;;
3627;SDS011;1830;49.000;12.074;2022-08-19T12:20:52;34.40;;;26.50;;
3627;SDS011;1830;49.000;12.074;2022-08-19T12:23:21;33.73;;;27.27;;
3627;SDS011;1830;49.000;12.074;2022-08-19T12:25:48;38.90;;;27.80;;
3627;SDS011;1830;49.000;12.074;2022-08-19T12:28:16;31.17;;;26.73;;
3627;SDS011;1830;49.000;12.074;2022-08-19T12:30:44;33.20;;;26.27;;
3627;SDS011;1830;49.000;12.074;2022-08-19T12:35:43;31.70;;;25.70;;
3627;SDS011;1830;49.000;12.074;2022-08-19T12:38:13;33.63;;;27.07;;
3627;SDS011;1830;49.000;12.074;2022-08-19T12:40:40;34.27;;;28.27;;
3627;SDS011;1830;49.000;12.074;2022-08-19T12:43:07;30.73;;;26.00;;
3627;SDS011;1830;49.000;12.074;2022-08-19T12:45:34;34.73;;;26.90;;
3627;SDS011;1830;49.000;12.074;2022-08-19T12:48:02;36.10;;;28.10;;
3627;SDS011;1830;49.000;12.074;2022-08-19T12:50:29;33.37;;;28.90;;
3627;SDS011;1830;49.000;12.074;2022-08-19T12:52:56;33.70;;;26.80;;
3627;SDS011;1830;49.000;12.074;2022-08-19T12:55:25;41.67;;;28.60;;
3627;SDS011;1830;49.000;12.074;2022-08-19T12:57:53;41.73;;;29.73;;
3627;SDS011;1830;49.000;12.074;2022-08-19T13:00:20;44.10;;;27.53;;
3627;SDS011;1830;49.000;12.074;2022-08-19T13:02:48;33.03;;;27.67;;
3627;SDS011;1830;49.000;12.074;2022-08-19T13:05:17;33.27;;;27.87;;
3627;SDS011;1830;49.000;12.074;2022-08-19T13:07:47;33.73;;;28.80;;
3627;SDS011;1830;49.000;12.074;2022-08-19T13:10:16;34.17;;;28.77;;
3627;SDS011;1830;49.000;12.074;2022-08-19T13:12:48;34.57;;;28.10;;
3627;SDS011;1830;49.000;12.074;2022-08-19T13:15:18;34.90;;;27.50;;
3627;SDS011;1830;49.000;12.074;2022-08-19T13:17:46;34.40;;;27.23;;
3627;SDS011;1830;49.000;12.074;2022-08-19T13:20:13;30.07;;;25.77;;
3627;SDS011;1830;49.000;12.074;2022-08-19T13:22:41;27.83;;;24.83;;
3627;SDS011;1830;49.000;12.074;2022-08-19T13:25:09;30.30;;;26.87;;
3627;SDS011;1830;49.000;12.074;2022-08-19T13:27:37;30.87;;;25.53;;
3627;SDS011;1830;49.000;12.074;2022-08-19T13:30:07;27.23;;;24.20;;
3627;SDS011;1830;49.000;12.074;2022-08-19T13:32:52;29.20;;;22.73;;
3627;SDS011;1830;49.000;12.074;2022-08-19T13:35:40;31.53;;;25.93;;
3627;SDS011;1830;49.000;12.074;2022-08-19T13:38:08;29.83;;;24.90;;
3627;SDS011;1830;49.000;12.074;2022-08-19T13:40:36;32.27;;;26.87;;
3627;SDS011;1830;49.000;12.074;2022-08-19T13:43:03;35.00;;;24.00;;
3627;SDS011;1830;49.000;12.074;2022-08-19T13:45:33;30.20;;;25.60;;
3627;SDS011;1830;49.000;12.074;2022-08-19T13:48:01;31.43;;;24.77;;
3627;SDS011;1830;49.000;12.074;2022-08-19T13:50:31;31.00;;;25.20;;
3627;SDS011;1830;49.000;12.074;2022-08-19T13:52:59;28.00;;;24.37;;
3627;SDS011;1830;49.000;12.074;2022-08-19T13:55:29;31.07;;;24.80;;
3627;SDS011;1830;49.000;12.074;2022-08-19T13:57:56;28.03;;;25.00;;
3627;SDS011;1830;49.000;12.074;2022-08-19T14:00:25;34.93;;;25.97;;
3627;SDS011;1830;49.000;12.074;2022-08-19T14:02:55;33.33;;;25.73;;
3627;SDS011;1830;49.000;12.074;2022-08-19T14:05:23;29.90;;;26.23;;
3627;SDS011;1830;49.000;12.074;2022-08-19T14:07:51;28.90;;;25.03;;
3627;SDS011;1830;49.000;12.074;2022-08-19T14:10:19;28.77;;;25.77;;
3627;SDS011;1830;49.000;12.074;2022-08-19T14:12:46;27.53;;;23.70;;
3627;SDS011;1830;49.000;12.074;2022-08-19T14:15:14;27.03;;;24.07;;
3627;SDS011;1830;49.000;12.074;2022-08-19T14:17:42;26.67;;;23.77;;
3627;SDS011;1830;49.000;12.074;2022-08-19T14:20:12;38.10;;;25.37;;
3627;SDS011;1830;49.000;12.074;2022-08-19T14:22:41;28.40;;;25.30;;
3627;SDS011;1830;49.000;12.074;2022-08-19T14:25:10;31.23;;;25.17;;
3627;SDS011;1830;49.000;12.074;2022-08-19T14:27:39;30.80;;;24.17;;
3627;SDS011;1830;49.000;12.074;2022-08-19T14:30:08;25.87;;;22.07;;
3627;SDS011;1830;49.000;12.074;2022-08-19T14:32:36;33.10;;;23.23;;
3627;SDS011;1830;49.000;12.074;2022-08-19T14:35:04;27.80;;;22.17;;
3627;SDS011;1830;49.000;12.074;2022-08-19T14:37:33;24.57;;;22.13;;
3627;SDS011;1830;49.000;12.074;2022-08-19T14:40:01;26.80;;;22.20;;
3627;SDS011;1830;49.000;12.074;2022-08-19T14:42:29;27.27;;;22.93;;
3627;SDS011;1830;49.000;12.074;2022-08-19T14:44:57;24.33;;;21.80;;
3627;SDS011;1830;49.000;12.074;2022-08-19T14:47:24;26.30;;;21.20;;